Time;durP1;ratioP1;P1;durP2;ratioP2;P2;SDS_P1;SDS_P2;PMS_P1;PMS_P2;Temp;Humidity;BMP_temperature;BMP_pressure;BME280_temperature;BME280_humidity;BME280_pressure;Samples;Min_cycle;Max_cycle;Signal;HPM_P1;HPM_P2
2023/06/11 00:01:52;;;;;;;9.75;7.10;;;;;;;17.16;100.00;93722.03;5015585;28;20068;-58
2023/06/11 00:04:24;;;;;;;9.73;7.50;;;;;;;17.16;100.00;93724.78;5031387;28;20464;-62
2023/06/11 00:06:53;;;;;;;10.35;7.18;;;;;;;17.08;100.00;93731.09;5020496;28;20046;-57
2023/06/11 00:09:22;;;;;;;9.07;7.22;;;;;;;17.09;100.00;93719.53;4997490;28;20044;-57
2023/06/11 00:11:49;;;;;;;8.77;6.75;;;;;;;17.09;100.00;93724.31;5017110;28;20042;-57
2023/06/11 00:14:15;;;;;;;10.55;7.80;;;;;;;16.98;100.00;93722.00;5023327;28;20509;-57
2023/06/11 00:16:43;;;;;;;10.33;6.90;;;;;;;17.05;100.00;93721.69;5030109;28;20045;-58
2023/06/11 00:19:11;;;;;;;10.00;7.35;;;;;;;16.99;100.00;93722.78;5031244;28;20041;-60
2023/06/11 00:21:43;;;;;;;9.93;6.97;;;;;;;17.01;100.00;93720.31;5018080;28;20414;-63
2023/06/11 00:24:14;;;;;;;10.75;7.47;;;;;;;16.93;100.00;93720.63;5030253;28;20344;-57
2023/06/11 00:26:42;;;;;;;11.82;8.05;;;;;;;17.00;100.00;93725.06;5030619;28;20043;-58
2023/06/11 00:29:09;;;;;;;14.10;10.33;;;;;;;17.01;100.00;93726.63;5031130;28;20042;-57
2023/06/11 00:31:36;;;;;;;9.88;7.55;;;;;;;16.94;100.00;93724.16;4997133;28;20053;-57
2023/06/11 00:34:03;;;;;;;10.73;7.60;;;;;;;16.93;100.00;93715.06;5003450;28;20041;-57
2023/06/11 00:36:32;;;;;;;9.05;6.93;;;;;;;16.91;100.00;93717.53;5017585;28;20410;-64
2023/06/11 00:38:59;;;;;;;9.80;7.28;;;;;;;16.86;100.00;93717.38;5030173;28;20053;-62
2023/06/11 00:41:26;;;;;;;9.77;6.90;;;;;;;16.86;100.00;93722.91;5026874;28;20487;-59
2023/06/11 00:43:54;;;;;;;12.95;7.50;;;;;;;16.83;100.00;93718.31;5003497;28;20038;-58
2023/06/11 00:46:21;;;;;;;12.27;8.98;;;;;;;16.78;100.00;93716.88;4993906;28;20050;-58
2023/06/11 00:48:50;;;;;;;19.75;13.15;;;;;;;16.75;100.00;93715.81;5009499;28;20050;-65
2023/06/11 00:51:24;;;;;;;11.32;7.88;;;;;;;16.66;100.00;93718.59;5030562;28;20051;-58
2023/06/11 00:53:53;;;;;;;11.27;7.97;;;;;;;16.63;100.00;93725.03;5030200;28;20045;-57
2023/06/11 00:56:20;;;;;;;9.57;7.13;;;;;;;16.43;100.00;93728.22;5030311;28;20041;-57
2023/06/11 00:58:48;;;;;;;11.60;7.00;;;;;;;16.41;100.00;93729.91;5029598;28;20041;-64
2023/06/11 01:01:26;;;;;;;9.35;7.07;;;;;;;16.37;100.00;93730.81;5030506;28;20049;-59
2023/06/11 01:03:56;;;;;;;9.60;7.10;;;;;;;16.31;100.00;93721.56;5029907;28;20381;-58
2023/06/11 01:06:28;;;;;;;10.40;7.60;;;;;;;16.30;100.00;93722.81;5030411;28;20037;-57
2023/06/11 01:08:57;;;;;;;9.82;7.28;;;;;;;16.17;100.00;93725.69;4997677;28;20057;-61
2023/06/11 01:11:27;;;;;;;11.23;8.82;;;;;;;15.68;100.00;93729.16;4996098;28;20370;-58
2023/06/11 01:13:54;;;;;;;10.02;7.20;;;;;;;15.84;100.00;93727.41;5003855;28;20510;-58
2023/06/11 01:16:42;;;;;;;14.13;8.63;;;;;;;15.79;100.00;93728.75;4989440;28;20419;-61
2023/06/11 01:19:38;;;;;;;11.23;8.07;;;;;;;15.74;100.00;93730.13;4989937;28;20239;-64
2023/06/11 01:22:21;;;;;;;11.82;8.48;;;;;;;15.80;100.00;93724.03;4990869;28;20052;-58
2023/06/11 01:24:51;;;;;;;11.18;7.82;;;;;;;15.84;100.00;93722.66;4990519;28;20045;-57
2023/06/11 01:27:24;;;;;;;12.07;8.18;;;;;;;15.77;100.00;93728.44;4990861;28;20480;-57
2023/06/11 01:29:54;;;;;;;10.35;7.82;;;;;;;15.66;100.00;93723.31;4995684;28;20052;-63
2023/06/11 01:32:25;;;;;;;9.90;7.57;;;;;;;15.52;100.00;93732.91;5006494;28;20040;-58
2023/06/11 01:35:00;;;;;;;10.20;7.65;;;;;;;15.52;100.00;93732.91;4991959;28;20471;-57
2023/06/11 01:37:29;;;;;;;10.30;7.85;;;;;;;15.46;100.00;93722.88;5007062;28;20147;-57
2023/06/11 01:39:56;;;;;;;10.70;8.00;;;;;;;15.46;100.00;93726.41;5009609;28;20476;-58
2023/06/11 01:42:23;;;;;;;10.30;7.78;;;;;;;15.45;100.00;93733.16;5029490;28;20693;-63
2023/06/11 01:44:49;;;;;;;11.17;7.83;;;;;;;15.48;100.00;93731.50;5019639;28;20045;-59
2023/06/11 01:47:16;;;;;;;12.15;8.43;;;;;;;15.37;100.00;93731.88;4988812;28;20045;-57
2023/06/11 01:49:43;;;;;;;10.57;7.97;;;;;;;15.31;100.00;93734.47;4998508;28;20042;-55
2023/06/11 01:52:09;;;;;;;11.50;8.35;;;;;;;15.28;100.00;93740.13;4995949;28;20045;-58
2023/06/11 01:54:36;;;;;;;12.80;8.85;;;;;;;15.14;100.00;93736.63;5022043;28;20370;-57
2023/06/11 01:57:03;;;;;;;11.03;7.93;;;;;;;15.18;100.00;93740.03;5027517;28;20405;-64
2023/06/11 01:59:30;;;;;;;11.95;8.20;;;;;;;15.21;100.00;93738.38;5028022;28;20037;-58
2023/06/11 02:01:57;;;;;;;11.75;8.20;;;;;;;15.25;100.00;93729.94;5028659;28;20115;-57
2023/06/11 02:04:23;;;;;;;11.75;8.40;;;;;;;15.24;100.00;93736.72;5022094;28;20046;-57
2023/06/11 02:06:50;;;;;;;11.20;8.40;;;;;;;15.27;100.00;93731.06;5022186;28;20057;-59
2023/06/11 02:09:17;;;;;;;12.03;8.73;;;;;;;15.34;100.00;93722.50;5009479;28;20041;-58
2023/06/11 02:11:44;;;;;;;11.45;8.10;;;;;;;15.23;100.00;93732.41;5009814;28;20331;-61
2023/06/11 02:14:11;;;;;;;11.85;9.00;;;;;;;15.07;100.00;93736.91;5029421;28;20048;-58
2023/06/11 02:16:38;;;;;;;11.75;8.50;;;;;;;15.12;100.00;93724.50;5028624;28;20056;-57
2023/06/11 02:19:05;;;;;;;12.00;9.02;;;;;;;15.18;100.00;93720.69;5028743;28;20045;-57
2023/06/11 02:21:32;;;;;;;11.37;8.27;;;;;;;15.23;100.00;93727.66;5028519;28;20111;-58
2023/06/11 02:23:59;;;;;;;12.25;9.07;;;;;;;15.30;100.00;93729.38;5028319;28;20041;-58
2023/06/11 02:26:26;;;;;;;12.85;8.88;;;;;;;15.33;100.00;93723.72;5011203;28;20050;-60
2023/06/11 02:28:52;;;;;;;11.15;8.60;;;;;;;15.40;100.00;93727.47;5008411;28;20038;-58
2023/06/11 02:31:19;;;;;;;11.80;8.93;;;;;;;15.38;100.00;93728.66;5010285;28;20044;-57
2023/06/11 02:33:46;;;;;;;12.43;8.77;;;;;;;15.38;100.00;93731.44;5020314;28;20048;-59
2023/06/11 02:36:12;;;;;;;12.68;8.85;;;;;;;15.41;100.00;93732.50;5009226;28;20372;-58
2023/06/11 02:38:39;;;;;;;12.20;8.80;;;;;;;15.40;100.00;93728.22;5001567;28;20065;-58
2023/06/11 02:41:06;;;;;;;11.00;8.48;;;;;;;15.39;100.00;93721.13;5023324;28;21255;-62
2023/06/11 02:43:32;;;;;;;12.63;8.82;;;;;;;15.19;100.00;93727.00;5004110;28;20073;-57
2023/06/11 02:45:59;;;;;;;12.40;9.30;;;;;;;15.15;100.00;93731.88;5026198;28;20425;-57
2023/06/11 02:48:26;;;;;;;11.10;8.90;;;;;;;15.22;100.00;93742.69;5028694;28;20068;-57
2023/06/11 02:50:53;;;;;;;11.90;8.65;;;;;;;15.23;100.00;93724.91;5014058;28;20042;-62
2023/06/11 02:53:19;;;;;;;12.50;9.10;;;;;;;15.11;100.00;93742.28;4993099;28;20476;-58
2023/06/11 02:55:46;;;;;;;12.07;8.90;;;;;;;15.03;100.00;93730.75;5008403;28;20049;-58
2023/06/11 02:58:13;;;;;;;11.93;8.97;;;;;;;15.08;100.00;93735.66;5011416;28;20113;-57
2023/06/11 03:00:40;;;;;;;14.25;9.05;;;;;;;15.13;100.00;93724.06;5001089;28;20041;-59
2023/06/11 03:03:06;;;;;;;12.68;9.20;;;;;;;15.12;100.00;93728.03;5000370;28;20403;-57
2023/06/11 03:05:33;;;;;;;15.38;9.85;;;;;;;15.12;100.00;93739.09;5023623;28;20051;-62
2023/06/11 03:08:00;;;;;;;13.68;9.43;;;;;;;15.11;100.00;93737.56;5027758;28;20363;-59
2023/06/11 03:10:28;;;;;;;12.50;9.50;;;;;;;15.13;100.00;93731.56;5013593;28;20049;-57
2023/06/11 03:12:55;;;;;;;14.75;10.15;;;;;;;15.10;100.00;93744.28;5027693;28;20041;-57
2023/06/11 03:15:22;;;;;;;13.63;9.40;;;;;;;15.11;100.00;93750.56;5028086;28;20085;-58
2023/06/11 03:17:49;;;;;;;12.93;9.50;;;;;;;15.13;100.00;93748.13;5026783;28;20124;-60
2023/06/11 03:20:15;;;;;;;13.18;10.13;;;;;;;15.14;100.00;93756.00;5002153;28;20061;-58
2023/06/11 03:22:42;;;;;;;13.60;10.17;;;;;;;15.12;100.00;93754.91;5001017;28;20053;-64
2023/06/11 03:25:09;;;;;;;13.75;9.75;;;;;;;15.02;100.00;93754.06;5012188;28;20042;-57
2023/06/11 03:27:37;;;;;;;13.77;10.30;;;;;;;15.07;100.00;93756.25;5010627;28;20048;-57
2023/06/11 03:30:05;;;;;;;13.63;10.10;;;;;;;14.96;100.00;93750.31;5024467;28;20046;-57
2023/06/11 03:32:32;;;;;;;15.80;10.40;;;;;;;15.01;100.00;93749.75;5009045;28;20486;-58
2023/06/11 03:34:59;;;;;;;13.67;10.17;;;;;;;14.96;100.00;93745.56;5011288;28;20111;-60
2023/06/11 03:37:26;;;;;;;13.20;9.80;;;;;;;14.85;100.00;93745.19;5011581;28;20040;-58
2023/06/11 03:39:52;;;;;;;13.80;10.25;;;;;;;14.85;100.00;93744.38;5011047;28;20677;-61
2023/06/11 03:42:19;;;;;;;14.77;10.57;;;;;;;14.91;100.00;93743.38;5011475;28;20046;-57
2023/06/11 03:44:46;;;;;;;14.73;10.60;;;;;;;15.05;100.00;93746.84;5010738;28;20048;-58
2023/06/11 03:47:13;;;;;;;14.20;10.50;;;;;;;15.12;100.00;93747.38;5007110;28;20048;-61
2023/06/11 03:49:39;;;;;;;13.77;10.55;;;;;;;15.17;100.00;93744.03;5010116;28;20046;-57
2023/06/11 03:52:07;;;;;;;13.57;10.13;;;;;;;15.21;100.00;93741.13;5025781;28;21582;-64
2023/06/11 03:54:33;;;;;;;14.18;9.95;;;;;;;15.17;100.00;93737.72;5022440;28;20052;-58
2023/06/11 03:57:00;;;;;;;13.20;9.68;;;;;;;15.21;100.00;93741.13;5005833;28;21234;-57
2023/06/11 03:59:27;;;;;;;14.73;9.87;;;;;;;15.09;100.00;93750.25;5002642;28;20042;-58
2023/06/11 04:01:54;;;;;;;14.55;10.43;;;;;;;14.96;100.00;93747.56;4990389;28;20046;-58
2023/06/11 04:04:21;;;;;;;13.18;9.77;;;;;;;15.06;100.00;93751.16;5004594;28;20050;-59
2023/06/11 04:06:47;;;;;;;14.10;9.65;;;;;;;15.17;100.00;93755.09;4992350;28;20053;-58
2023/06/11 04:09:14;;;;;;;13.75;9.68;;;;;;;15.21;100.00;93754.94;5004904;28;20410;-57
2023/06/11 04:11:41;;;;;;;13.83;9.77;;;;;;;15.25;100.00;93757.59;4993482;28;20044;-55
2023/06/11 04:14:08;;;;;;;13.15;9.80;;;;;;;15.37;100.00;93754.78;4990587;28;20500;-60
2023/06/11 04:16:34;;;;;;;14.20;9.80;;;;;;;15.45;100.00;93758.03;4991754;28;20046;-58
2023/06/11 04:19:01;;;;;;;13.75;9.80;;;;;;;15.41;100.00;93765.69;4991665;28;20054;-65
2023/06/11 04:21:29;;;;;;;14.50;9.98;;;;;;;15.52;100.00;93768.09;4993546;28;20104;-60
2023/06/11 04:23:55;;;;;;;12.40;9.30;;;;;;;15.74;100.00;93762.56;5029565;28;20052;-57
2023/06/11 04:26:23;;;;;;;15.13;11.00;;;;;;;15.56;100.00;93765.97;5029674;28;20059;-57
2023/06/11 04:28:50;;;;;;;14.77;10.73;;;;;;;16.80;100.00;93764.28;5030745;28;20041;-57
2023/06/11 04:31:17;;;;;;;13.50;10.13;;;;;;;18.52;100.00;93756.66;5017737;28;20045;-58
2023/06/11 04:33:45;;;;;;;14.05;10.13;;;;;;;19.12;100.00;93757.69;5010548;28;20052;-58
2023/06/11 04:36:12;;;;;;;12.37;9.63;;;;;;;19.05;100.00;93757.28;5011306;28;20495;-63
2023/06/11 04:38:44;;;;;;;13.32;9.80;;;;;;;18.78;100.00;93758.97;5008820;28;20038;-60
2023/06/11 04:41:11;;;;;;;11.98;10.13;;;;;;;18.04;100.00;93759.31;5010009;28;20042;-58
2023/06/11 04:43:39;;;;;;;11.98;10.02;;;;;;;18.11;100.00;93763.75;5010580;28;20052;-65
2023/06/11 04:46:06;;;;;;;13.43;9.80;;;;;;;17.93;100.00;93765.38;5029707;28;20042;-58
2023/06/11 04:48:33;;;;;;;13.60;9.77;;;;;;;17.89;100.00;93764.00;5029298;28;20075;-59
2023/06/11 04:51:00;;;;;;;12.50;10.13;;;;;;;17.57;100.00;93780.06;5030363;28;20060;-57
2023/06/11 04:53:29;;;;;;;13.98;10.18;;;;;;;17.03;100.00;93776.06;5028777;28;20038;-57
2023/06/11 04:56:02;;;;;;;13.68;10.00;;;;;;;17.27;100.00;93771.47;5022074;28;20046;-57
2023/06/11 04:58:31;;;;;;;13.88;9.93;;;;;;;17.21;100.00;93767.00;5030613;28;20045;-63
2023/06/11 05:00:58;;;;;;;12.33;9.47;;;;;;;17.17;100.00;93767.16;5030033;28;20402;-60
2023/06/11 05:03:29;;;;;;;12.63;9.90;;;;;;;17.15;100.00;93770.38;5030400;28;20049;-63
2023/06/11 05:05:55;;;;;;;12.55;10.00;;;;;;;17.31;100.00;93765.75;5029824;28;20037;-58
2023/06/11 05:08:24;;;;;;;14.90;10.35;;;;;;;17.40;100.00;93771.28;5030058;28;20042;-58
2023/06/11 05:10:52;;;;;;;12.52;10.15;;;;;;;17.34;100.00;93762.84;5029559;28;20482;-63
2023/06/11 05:13:24;;;;;;;12.97;9.40;;;;;;;17.42;100.00;93768.06;5030190;28;20052;-63
2023/06/11 05:15:53;;;;;;;13.18;9.95;;;;;;;18.04;100.00;93767.66;5021885;28;20046;-57
2023/06/11 05:18:20;;;;;;;11.63;8.85;;;;;;;20.69;100.00;93752.56;5011948;28;20382;-58
2023/06/11 05:20:50;;;;;;;10.63;9.13;;;;;;;22.82;96.24;93752.41;5029641;28;20069;-58
2023/06/11 05:23:18;;;;;;;10.10;8.77;;;;;;;25.34;81.52;93760.97;5004055;28;20050;-58
2023/06/11 05:25:49;;;;;;;9.13;7.90;;;;;;;26.67;68.30;93759.94;5026576;28;20080;-60
2023/06/11 05:28:16;;;;;;;9.30;7.80;;;;;;;26.47;65.31;93763.91;5015710;28;20171;-58
2023/06/11 05:30:45;;;;;;;8.68;7.72;;;;;;;26.63;65.60;93762.25;4992375;28;20052;-56
2023/06/11 05:33:17;;;;;;;9.45;8.48;;;;;;;26.03;67.78;93765.75;5014147;28;20037;-58
2023/06/11 05:35:44;;;;;;;10.45;8.65;;;;;;;27.03;61.50;93769.03;5029313;28;20042;-59
2023/06/11 05:38:11;;;;;;;10.30;7.97;;;;;;;28.03;57.29;93762.78;5024366;28;20052;-61
2023/06/11 05:40:38;;;;;;;8.50;7.60;;;;;;;27.44;57.06;93759.66;4992457;28;20050;-58
2023/06/11 05:43:06;;;;;;;8.43;7.45;;;;;;;28.59;54.42;93766.81;4990134;28;20066;-58
2023/06/11 05:45:33;;;;;;;8.20;7.25;;;;;;;28.49;52.17;93768.47;4990350;28;20433;-59
2023/06/11 05:48:00;;;;;;;7.95;7.15;;;;;;;29.15;49.38;93776.41;4997884;28;20052;-64
2023/06/11 05:50:27;;;;;;;7.23;6.53;;;;;;;29.54;49.49;93774.91;5007621;28;20385;-62
2023/06/11 05:52:53;;;;;;;7.35;6.60;;;;;;;30.36;47.05;93772.16;4989768;28;20042;-60
2023/06/11 05:55:20;;;;;;;7.15;6.45;;;;;;;30.50;44.14;93772.84;5002675;28;20190;-58
2023/06/11 05:57:47;;;;;;;7.30;6.60;;;;;;;31.24;43.30;93778.25;5007220;28;20145;-59
2023/06/11 06:00:14;;;;;;;6.95;6.25;;;;;;;32.03;40.46;93772.50;5029474;28;20307;-60
2023/06/11 06:02:41;;;;;;;6.27;5.67;;;;;;;31.79;40.32;93768.00;5006582;28;20038;-59
2023/06/11 06:05:08;;;;;;;6.85;6.10;;;;;;;30.25;43.43;93775.22;5006468;28;21247;-60
2023/06/11 06:07:35;;;;;;;6.88;6.18;;;;;;;31.88;39.57;93773.16;5029219;28;20049;-59
2023/06/11 06:10:03;;;;;;;6.25;5.65;;;;;;;31.95;39.21;93768.84;5016250;28;20068;-62
2023/06/11 06:12:29;;;;;;;6.65;5.63;;;;;;;30.45;42.26;93777.34;5005757;28;20487;-58
2023/06/11 06:14:56;;;;;;;6.67;5.97;;;;;;;32.48;38.75;93768.28;4991258;28;20381;-59
2023/06/11 06:17:23;;;;;;;6.40;5.80;;;;;;;32.40;37.79;93773.19;5014516;28;20165;-61
2023/06/11 06:19:50;;;;;;;6.97;6.28;;;;;;;30.55;41.11;93777.66;5027104;28;20047;-67
2023/06/11 06:22:18;;;;;;;6.70;6.00;;;;;;;30.26;39.91;93773.91;5028867;28;20042;-65
2023/06/11 06:24:45;;;;;;;6.40;5.80;;;;;;;31.03;40.28;93774.69;5028420;28;20041;-67
2023/06/11 06:27:11;;;;;;;6.80;5.10;;;;;;;31.19;39.87;93782.00;5028918;28;20037;-58
2023/06/11 06:29:41;;;;;;;6.97;6.20;;;;;;;31.15;38.93;93790.09;5023720;28;20102;-59
2023/06/11 06:32:08;;;;;;;6.20;5.60;;;;;;;30.66;40.89;93788.69;5001678;28;20446;-59
2023/06/11 06:34:35;;;;;;;6.03;5.43;;;;;;;31.83;37.97;93789.03;5024748;28;20041;-59
2023/06/11 06:37:02;;;;;;;6.05;5.35;;;;;;;32.28;37.49;93794.72;5028365;28;20052;-59
2023/06/11 06:39:29;;;;;;;6.33;5.53;;;;;;;33.57;35.20;93790.53;5001037;28;20489;-61
2023/06/11 06:41:56;;;;;;;6.25;5.03;;;;;;;35.43;32.86;93773.28;5013925;28;20056;-66
2023/06/11 06:44:23;;;;;;;6.00;5.40;;;;;;;33.85;33.58;93785.94;5013353;28;20053;-63
2023/06/11 06:46:49;;;;;;;5.25;4.72;;;;;;;33.68;33.65;93780.84;5025517;28;20405;-59
2023/06/11 06:49:16;;;;;;;5.90;4.95;;;;;;;32.26;34.61;93795.31;5028593;28;20372;-59
2023/06/11 06:51:43;;;;;;;5.50;5.00;;;;;;;32.10;35.29;93785.97;5028312;28;20046;-60
2023/06/11 06:54:10;;;;;;;6.38;5.78;;;;;;;26.47;43.14;93801.25;5027200;28;20486;-59
2023/06/11 06:56:37;;;;;;;6.78;5.40;;;;;;;30.63;39.40;93783.38;5019798;28;20402;-63
2023/06/11 06:59:04;;;;;;;6.30;5.20;;;;;;;32.14;36.00;93783.53;5009871;28;20046;-58
2023/06/11 07:01:31;;;;;;;5.32;4.82;;;;;;;32.97;34.14;93778.59;5028853;28;20054;-59
2023/06/11 07:03:58;;;;;;;6.83;5.00;;;;;;;34.16;33.63;93778.06;5004149;28;20042;-59
2023/06/11 07:06:25;;;;;;;6.65;5.50;;;;;;;34.19;31.97;93794.00;5022810;28;20049;-61
2023/06/11 07:08:52;;;;;;;7.70;5.88;;;;;;;25.73;47.06;93799.38;5027513;28;20065;-60
2023/06/11 07:11:21;;;;;;;6.93;6.00;;;;;;;29.21;41.96;93790.44;5012598;28;20152;-62
2023/06/11 07:13:48;;;;;;;6.30;5.70;;;;;;;27.56;45.63;93796.16;5000826;28;20096;-68
2023/06/11 07:16:15;;;;;;;5.80;5.20;;;;;;;31.14;38.42;93791.41;4992363;28;20038;-61
2023/06/11 07:18:42;;;;;;;5.22;4.53;;;;;;;34.32;33.31;93793.00;5007406;28;20136;-66
2023/06/11 07:21:09;;;;;;;5.28;4.78;;;;;;;32.02;34.62;93799.38;5031529;28;20485;-59
2023/06/11 07:23:36;;;;;;;6.05;5.40;;;;;;;29.60;38.69;93798.16;5031486;28;20046;-60
2023/06/11 07:26:03;;;;;;;6.22;5.60;;;;;;;27.06;44.67;93809.47;5030763;28;20037;-63
2023/06/11 07:28:30;;;;;;;6.63;5.93;;;;;;;27.76;44.12;93787.19;5031823;28;20049;-59
2023/06/11 07:30:57;;;;;;;6.55;5.30;;;;;;;28.25;43.17;93801.19;5020694;28;20045;-65
2023/06/11 07:33:23;;;;;;;5.57;4.97;;;;;;;30.03;39.84;93801.97;5011919;28;20042;-59
2023/06/11 07:35:52;;;;;;;5.88;5.28;;;;;;;28.31;41.17;93809.53;5010721;28;20038;-58
2023/06/11 07:38:19;;;;;;;6.22;4.82;;;;;;;30.29;38.48;93795.47;5031333;28;20037;-58
2023/06/11 07:40:46;;;;;;;5.87;5.10;;;;;;;28.25;41.20;93814.50;5030731;28;20285;-71
2023/06/11 07:43:12;;;;;;;6.13;4.50;;;;;;;30.17;38.84;93805.53;5031509;28;20479;-59
2023/06/11 07:45:39;;;;;;;6.28;4.97;;;;;;;32.57;33.77;93792.56;5022323;28;20044;-68
2023/06/11 07:48:06;;;;;;;5.38;4.30;;;;;;;33.28;32.81;93800.59;5015287;28;20053;-63
2023/06/11 07:50:33;;;;;;;5.22;4.72;;;;;;;32.85;32.70;93794.50;5031278;28;20156;-59
2023/06/11 07:53:00;;;;;;;5.00;4.40;;;;;;;33.02;32.93;93805.31;5030280;28;20049;-59
2023/06/11 07:55:26;;;;;;;5.38;4.80;;;;;;;29.97;36.79;93812.63;5016802;28;20050;-60
2023/06/11 07:57:53;;;;;;;5.25;4.57;;;;;;;32.71;33.91;93799.59;5015537;28;20033;-59
2023/06/11 08:00:21;;;;;;;5.55;4.50;;;;;;;28.09;39.90;93813.44;5031290;28;20047;-63
2023/06/11 08:02:48;;;;;;;5.43;4.70;;;;;;;28.95;39.47;93813.72;5030195;28;20449;-62
2023/06/11 08:05:19;;;;;;;5.53;4.77;;;;;;;29.94;37.59;93808.06;5031058;28;20045;-59
2023/06/11 08:07:47;;;;;;;5.60;4.85;;;;;;;28.60;40.09;93804.28;5030459;28;20118;-62
2023/06/11 08:10:14;;;;;;;6.63;4.93;;;;;;;28.84;39.92;93806.97;5031079;28;20112;-67
2023/06/11 08:12:42;;;;;;;5.55;4.10;;;;;;;31.09;36.75;93806.50;5030171;28;20407;-58
2023/06/11 08:15:10;;;;;;;5.28;4.65;;;;;;;29.55;39.13;93804.69;5030497;28;20053;-59
2023/06/11 08:17:38;;;;;;;5.00;4.50;;;;;;;32.25;34.73;93811.56;5030361;28;20076;-59
2023/06/11 08:20:07;;;;;;;5.00;4.28;;;;;;;28.85;38.82;93816.94;5028851;28;20045;-59
2023/06/11 08:22:34;;;;;;;5.35;4.50;;;;;;;29.86;37.05;93810.78;5017898;28;20055;-59
2023/06/11 08:25:01;;;;;;;5.57;4.80;;;;;;;28.20;40.34;93807.66;5030180;28;20049;-59
2023/06/11 08:27:28;;;;;;;5.60;5.00;;;;;;;28.33;41.10;93811.84;5016969;28;20038;-59
2023/06/11 08:29:54;;;;;;;6.37;5.37;;;;;;;27.95;41.12;93809.03;5019983;28;20042;-65
2023/06/11 08:32:21;;;;;;;5.32;4.40;;;;;;;31.03;36.82;93800.22;5030286;28;20042;-62
2023/06/11 08:34:48;;;;;;;5.07;4.57;;;;;;;31.70;34.51;93811.09;5029867;28;20409;-68
2023/06/11 08:37:15;;;;;;;4.90;4.40;;;;;;;30.19;37.29;93817.06;5030346;28;20380;-59
2023/06/11 08:39:42;;;;;;;6.25;4.70;;;;;;;27.49;42.68;93808.81;5021777;28;20402;-57
2023/06/11 08:42:08;;;;;;;5.53;4.33;;;;;;;31.02;36.53;93793.75;5001419;28;20050;-59
2023/06/11 08:44:35;;;;;;;5.60;5.00;;;;;;;29.50;37.31;93804.78;5008811;28;20042;-62
2023/06/11 08:47:04;;;;;;;5.25;4.50;;;;;;;30.18;37.11;93799.28;4990594;28;20043;-68
2023/06/11 08:49:31;;;;;;;5.82;4.80;;;;;;;30.48;35.94;93800.97;4991463;28;20406;-61
2023/06/11 08:52:02;;;;;;;5.38;4.57;;;;;;;31.75;34.44;93798.81;4993275;28;20396;-68
2023/06/11 08:54:29;;;;;;;5.70;5.10;;;;;;;29.67;37.74;93805.22;5008208;28;20126;-62
2023/06/11 08:56:56;;;;;;;6.15;5.15;;;;;;;29.46;37.57;93796.66;5001949;28;20056;-64
2023/06/11 08:59:23;;;;;;;6.55;5.32;;;;;;;27.04;42.49;93812.81;5013965;28;20046;-58
2023/06/11 09:01:52;;;;;;;6.00;5.40;;;;;;;26.90;42.82;93814.75;5028805;28;20053;-58
2023/06/11 09:04:20;;;;;;;6.05;5.45;;;;;;;27.74;41.68;93795.44;5030429;28;20041;-58
2023/06/11 09:06:51;;;;;;;6.23;5.30;;;;;;;28.18;41.50;93803.84;5023329;28;20038;-59
2023/06/11 09:09:18;;;;;;;6.32;5.65;;;;;;;29.26;38.43;93801.63;5009143;28;20494;-60
2023/06/11 09:11:46;;;;;;;7.05;6.35;;;;;;;26.56;42.89;93797.34;5016723;28;20044;-62
2023/06/11 09:14:13;;;;;;;6.38;5.78;;;;;;;28.16;42.12;93800.81;5030046;28;20143;-59
2023/06/11 09:16:44;;;;;;;6.75;6.00;;;;;;;29.09;39.51;93799.06;5029951;28;20049;-59
2023/06/11 09:19:15;;;;;;;6.63;5.93;;;;;;;28.02;41.45;93811.25;5029386;28;21121;-59
2023/06/11 09:21:53;;;;;;;6.60;5.63;;;;;;;29.42;38.74;93802.63;5029371;28;20053;-56
2023/06/11 09:24:20;;;;;;;7.75;6.60;;;;;;;27.99;40.93;93821.56;5016706;28;20053;-67
2023/06/11 09:26:55;;;;;;;7.40;6.68;;;;;;;27.75;41.97;93799.00;5027260;28;20048;-59
2023/06/11 09:29:27;;;;;;;7.28;6.50;;;;;;;28.15;40.83;93811.34;5010149;28;20040;-59
2023/06/11 09:32:09;;;;;;;7.07;6.17;;;;;;;29.41;38.62;93797.50;4996151;28;20053;-68
2023/06/11 09:34:56;;;;;;;6.68;5.97;;;;;;;30.03;37.24;93808.38;5019468;28;20048;-59
2023/06/11 09:37:23;;;;;;;6.40;5.72;;;;;;;29.87;37.83;93801.75;5029393;28;20279;-62
2023/06/11 09:39:50;;;;;;;7.70;6.13;;;;;;;29.77;37.29;93803.50;5029121;28;20048;-60
2023/06/11 09:42:26;;;;;;;7.13;6.43;;;;;;;26.98;43.44;93819.78;5013150;28;20042;-61
2023/06/11 09:44:58;;;;;;;6.47;5.87;;;;;;;32.38;34.65;93807.84;5000892;28;20054;-60
2023/06/11 09:47:28;;;;;;;6.68;6.07;;;;;;;30.12;36.08;93809.97;4993760;28;20064;-63
2023/06/11 09:49:56;;;;;;;6.28;5.68;;;;;;;29.21;37.85;93815.88;5009306;28;20410;-60
2023/06/11 09:52:23;;;;;;;6.82;5.70;;;;;;;28.88;38.60;93810.22;5000616;28;20073;-66
2023/06/11 09:54:50;;;;;;;6.50;5.80;;;;;;;30.39;37.21;93807.88;4988208;28;20046;-60
2023/06/11 09:57:17;;;;;;;7.20;6.00;;;;;;;29.24;38.51;93818.38;5003129;28;20053;-65
2023/06/11 09:59:45;;;;;;;7.55;6.15;;;;;;;27.34;42.08;93823.31;5028939;28;20056;-65
2023/06/11 10:02:13;;;;;;;6.55;5.95;;;;;;;29.85;37.67;93810.03;5029383;28;20048;-61
2023/06/11 10:04:40;;;;;;;7.43;6.30;;;;;;;30.47;35.98;93807.97;5029070;28;20053;-59
2023/06/11 10:07:10;;;;;;;6.75;6.05;;;;;;;28.71;37.50;93823.09;5028467;28;20040;-58
2023/06/11 10:09:39;;;;;;;6.60;5.87;;;;;;;29.30;37.72;93794.88;5029456;28;20037;-58
2023/06/11 10:12:06;;;;;;;8.10;6.20;;;;;;;29.83;37.08;93809.06;5028633;28;20046;-61
2023/06/11 10:14:33;;;;;;;7.00;6.30;;;;;;;28.95;38.34;93808.81;5029104;28;20052;-57
2023/06/11 10:17:02;;;;;;;6.43;5.70;;;;;;;24.41;44.57;93816.16;5008109;28;20047;-58
2023/06/11 10:19:36;;;;;;;7.03;6.13;;;;;;;27.59;40.74;93821.25;5003181;28;20430;-58
2023/06/11 10:22:03;;;;;;;7.33;5.83;;;;;;;27.87;39.37;93820.94;4989210;28;20042;-60
2023/06/11 10:24:29;;;;;;;6.38;5.78;;;;;;;26.57;42.80;93823.44;5004187;28;20048;-58
2023/06/11 10:27:02;;;;;;;7.13;5.60;;;;;;;29.50;36.11;93804.78;5014484;28;20099;-62
2023/06/11 10:29:46;;;;;;;6.32;5.68;;;;;;;27.52;38.75;93807.72;5000941;28;20085;-60
2023/06/11 10:32:17;;;;;;;6.75;5.80;;;;;;;27.17;41.65;93808.63;5028259;28;20041;-58
2023/06/11 10:34:45;;;;;;;8.10;6.10;;;;;;;28.46;38.95;93790.09;5028426;28;20346;-59
2023/06/11 10:37:12;;;;;;;6.97;6.28;;;;;;;27.80;40.72;93790.47;5028402;28;20045;-64
2023/06/11 10:39:50;;;;;;;8.23;6.65;;;;;;;25.19;44.95;93803.34;5000882;28;20052;-60
2023/06/11 10:42:50;;;;;;;7.35;6.22;;;;;;;26.97;42.76;93816.22;5009433;28;20502;-60
2023/06/11 10:45:17;;;;;;;7.00;6.30;;;;;;;27.69;40.30;93799.84;5003804;28;20747;-58
2023/06/11 10:47:51;;;;;;;7.17;6.23;;;;;;;25.67;43.71;93805.00;5005365;28;20057;-62
2023/06/11 10:50:30;;;;;;;7.65;6.25;;;;;;;28.35;38.85;93801.53;5023800;28;20045;-58
2023/06/11 10:53:03;;;;;;;6.97;6.28;;;;;;;27.83;39.80;93819.66;5027878;28;20048;-58
2023/06/11 10:55:32;;;;;;;6.82;6.13;;;;;;;26.53;42.11;93792.00;5028706;28;20038;-57
2023/06/11 10:58:00;;;;;;;7.75;6.60;;;;;;;25.34;43.62;93805.91;5028016;28;20059;-57
2023/06/11 11:00:32;;;;;;;8.30;6.50;;;;;;;26.97;41.08;93804.19;5028436;28;20075;-58
2023/06/11 11:03:03;;;;;;;7.07;6.38;;;;;;;25.98;42.32;93789.81;5026829;28;20064;-59
2023/06/11 11:05:31;;;;;;;7.95;6.60;;;;;;;25.32;44.59;93789.56;4994354;28;20042;-57
2023/06/11 11:08:01;;;;;;;8.13;6.32;;;;;;;25.68;43.17;93787.63;5005733;28;20045;-60
2023/06/11 11:10:28;;;;;;;8.10;6.75;;;;;;;25.07;45.74;93797.78;5022647;28;20421;-57
2023/06/11 11:12:55;;;;;;;7.30;6.37;;;;;;;23.68;47.76;93808.31;5027698;28;20041;-57
2023/06/11 11:15:22;;;;;;;7.53;6.43;;;;;;;23.63;47.46;93811.88;5027979;28;20099;-61
2023/06/11 11:17:50;;;;;;;8.30;5.85;;;;;;;24.84;44.87;93802.66;5027779;28;20483;-57
2023/06/11 11:20:19;;;;;;;7.57;5.50;;;;;;;24.80;44.55;93790.16;5002064;28;20053;-57
2023/06/11 11:22:51;;;;;;;8.73;6.10;;;;;;;25.25;44.04;93788.06;5024664;28;20045;-57
2023/06/11 11:25:29;;;;;;;6.77;5.90;;;;;;;25.16;45.85;93791.13;5028398;28;20052;-58
2023/06/11 11:27:57;;;;;;;7.63;6.30;;;;;;;24.05;46.85;93813.06;5027556;28;20067;-57
2023/06/11 11:30:28;;;;;;;6.82;6.13;;;;;;;24.61;46.26;93795.53;5017871;28;20038;-57